sensor_id;sensor_type;location;lat;lon;timestamp;P1;durP1;ratioP1;P2;durP2;ratioP2
75542;SDS011;64129;53.508;10.476;2023-05-07T00:01:16;9.77;;;7.32;;
75542;SDS011;64129;53.508;10.476;2023-05-07T00:03:43;10.45;;;8.32;;
75542;SDS011;64129;53.508;10.476;2023-05-07T00:06:10;14.00;;;8.10;;
75542;SDS011;64129;53.508;10.476;2023-05-07T00:08:38;12.77;;;7.82;;
75542;SDS011;64129;53.508;10.476;2023-05-07T00:11:05;12.50;;;8.45;;
75542;SDS011;64129;53.508;10.476;2023-05-07T00:13:31;10.95;;;8.05;;
75542;SDS011;64129;53.508;10.476;2023-05-07T00:16:02;11.35;;;7.93;;
75542;SDS011;64129;53.508;10.476;2023-05-07T00:18:29;10.73;;;7.95;;
75542;SDS011;64129;53.508;10.476;2023-05-07T00:20:55;12.35;;;7.95;;
75542;SDS011;64129;53.508;10.476;2023-05-07T00:23:22;10.27;;;7.45;;
75542;SDS011;64129;53.508;10.476;2023-05-07T00:25:49;8.48;;;6.65;;
75542;SDS011;64129;53.508;10.476;2023-05-07T00:28:16;11.27;;;7.28;;
75542;SDS011;64129;53.508;10.476;2023-05-07T00:30:42;11.57;;;6.97;;
75542;SDS011;64129;53.508;10.476;2023-05-07T00:33:09;11.18;;;6.38;;
75542;SDS011;64129;53.508;10.476;2023-05-07T00:35:36;8.73;;;5.65;;
75542;SDS011;64129;53.508;10.476;2023-05-07T00:38:02;10.88;;;7.00;;
75542;SDS011;64129;53.508;10.476;2023-05-07T00:40:29;8.20;;;6.00;;
75542;SDS011;64129;53.508;10.476;2023-05-07T00:42:55;9.80;;;6.60;;
75542;SDS011;64129;53.508;10.476;2023-05-07T00:45:26;12.75;;;7.15;;
75542;SDS011;64129;53.508;10.476;2023-05-07T00:47:54;12.45;;;7.47;;
75542;SDS011;64129;53.508;10.476;2023-05-07T00:50:23;11.52;;;6.90;;
75542;SDS011;64129;53.508;10.476;2023-05-07T00:52:50;10.00;;;6.50;;
75542;SDS011;64129;53.508;10.476;2023-05-07T00:55:17;11.02;;;6.55;;
75542;SDS011;64129;53.508;10.476;2023-05-07T00:57:43;9.38;;;6.55;;
75542;SDS011;64129;53.508;10.476;2023-05-07T01:00:11;10.23;;;5.85;;
75542;SDS011;64129;53.508;10.476;2023-05-07T01:02:39;10.23;;;6.18;;
75542;SDS011;64129;53.508;10.476;2023-05-07T01:05:06;8.25;;;6.63;;
75542;SDS011;64129;53.508;10.476;2023-05-07T01:07:35;8.90;;;6.00;;
75542;SDS011;64129;53.508;10.476;2023-05-07T01:10:04;9.40;;;5.28;;
75542;SDS011;64129;53.508;10.476;2023-05-07T01:12:32;8.25;;;5.97;;
75542;SDS011;64129;53.508;10.476;2023-05-07T01:15:00;9.23;;;5.97;;
75542;SDS011;64129;53.508;10.476;2023-05-07T01:17:28;8.75;;;6.40;;
75542;SDS011;64129;53.508;10.476;2023-05-07T01:19:55;11.10;;;6.43;;
75542;SDS011;64129;53.508;10.476;2023-05-07T01:22:28;9.30;;;6.35;;
75542;SDS011;64129;53.508;10.476;2023-05-07T01:24:58;12.60;;;7.63;;
75542;SDS011;64129;53.508;10.476;2023-05-07T01:27:27;6.97;;;5.05;;
75542;SDS011;64129;53.508;10.476;2023-05-07T01:29:54;8.93;;;6.88;;
75542;SDS011;64129;53.508;10.476;2023-05-07T01:32:24;9.30;;;6.78;;
75542;SDS011;64129;53.508;10.476;2023-05-07T01:34:55;9.45;;;7.03;;
75542;SDS011;64129;53.508;10.476;2023-05-07T01:37:24;8.65;;;5.35;;
75542;SDS011;64129;53.508;10.476;2023-05-07T01:39:51;7.88;;;5.68;;
75542;SDS011;64129;53.508;10.476;2023-05-07T01:42:19;11.95;;;7.00;;
75542;SDS011;64129;53.508;10.476;2023-05-07T01:44:46;9.90;;;7.05;;
75542;SDS011;64129;53.508;10.476;2023-05-07T01:47:13;12.43;;;6.35;;
75542;SDS011;64129;53.508;10.476;2023-05-07T01:49:41;10.73;;;6.63;;
75542;SDS011;64129;53.508;10.476;2023-05-07T01:52:09;10.25;;;7.10;;
75542;SDS011;64129;53.508;10.476;2023-05-07T01:54:37;9.65;;;6.85;;
75542;SDS011;64129;53.508;10.476;2023-05-07T01:57:04;9.55;;;7.15;;
75542;SDS011;64129;53.508;10.476;2023-05-07T01:59:30;8.80;;;6.85;;
75542;SDS011;64129;53.508;10.476;2023-05-07T02:01:57;9.02;;;6.40;;
75542;SDS011;64129;53.508;10.476;2023-05-07T02:04:23;10.18;;;7.18;;
75542;SDS011;64129;53.508;10.476;2023-05-07T02:06:52;9.65;;;7.25;;
75542;SDS011;64129;53.508;10.476;2023-05-07T02:09:19;9.10;;;6.57;;
75542;SDS011;64129;53.508;10.476;2023-05-07T02:11:48;10.85;;;7.43;;
75542;SDS011;64129;53.508;10.476;2023-05-07T02:14:15;9.98;;;6.95;;
75542;SDS011;64129;53.508;10.476;2023-05-07T02:16:42;8.68;;;6.45;;
75542;SDS011;64129;53.508;10.476;2023-05-07T02:19:10;10.93;;;8.05;;
75542;SDS011;64129;53.508;10.476;2023-05-07T02:21:37;10.80;;;6.40;;
75542;SDS011;64129;53.508;10.476;2023-05-07T02:24:03;9.70;;;7.65;;
75542;SDS011;64129;53.508;10.476;2023-05-07T02:26:30;9.32;;;6.65;;
75542;SDS011;64129;53.508;10.476;2023-05-07T02:28:56;9.23;;;6.72;;
75542;SDS011;64129;53.508;10.476;2023-05-07T02:31:23;9.70;;;7.57;;
75542;SDS011;64129;53.508;10.476;2023-05-07T02:33:49;10.07;;;6.32;;
75542;SDS011;64129;53.508;10.476;2023-05-07T02:36:16;8.60;;;6.55;;
75542;SDS011;64129;53.508;10.476;2023-05-07T02:38:54;12.63;;;7.78;;
75542;SDS011;64129;53.508;10.476;2023-05-07T02:41:21;9.68;;;6.82;;
75542;SDS011;64129;53.508;10.476;2023-05-07T02:43:47;7.90;;;6.43;;
75542;SDS011;64129;53.508;10.476;2023-05-07T02:46:14;8.40;;;6.40;;
75542;SDS011;64129;53.508;10.476;2023-05-07T02:48:45;10.10;;;7.53;;
75542;SDS011;64129;53.508;10.476;2023-05-07T02:51:12;9.50;;;7.28;;
75542;SDS011;64129;53.508;10.476;2023-05-07T02:56:07;10.52;;;7.40;;
75542;SDS011;64129;53.508;10.476;2023-05-07T02:58:33;8.70;;;6.00;;
75542;SDS011;64129;53.508;10.476;2023-05-07T03:01:01;10.43;;;7.25;;
75542;SDS011;64129;53.508;10.476;2023-05-07T03:03:53;10.18;;;7.10;;
75542;SDS011;64129;53.508;10.476;2023-05-07T03:06:21;9.45;;;7.18;;
75542;SDS011;64129;53.508;10.476;2023-05-07T03:08:47;8.05;;;6.25;;
75542;SDS011;64129;53.508;10.476;2023-05-07T03:11:14;10.25;;;6.38;;
75542;SDS011;64129;53.508;10.476;2023-05-07T03:13:41;11.68;;;7.30;;
75542;SDS011;64129;53.508;10.476;2023-05-07T03:16:07;9.15;;;6.07;;
75542;SDS011;64129;53.508;10.476;2023-05-07T03:18:34;10.35;;;6.75;;
75542;SDS011;64129;53.508;10.476;2023-05-07T03:21:00;9.63;;;6.82;;
75542;SDS011;64129;53.508;10.476;2023-05-07T03:23:27;7.88;;;6.82;;
75542;SDS011;64129;53.508;10.476;2023-05-07T03:25:53;7.75;;;6.30;;
75542;SDS011;64129;53.508;10.476;2023-05-07T03:28:20;10.48;;;7.10;;
75542;SDS011;64129;53.508;10.476;2023-05-07T03:30:54;10.63;;;6.68;;
75542;SDS011;64129;53.508;10.476;2023-05-07T03:33:21;7.65;;;5.90;;
75542;SDS011;64129;53.508;10.476;2023-05-07T03:35:48;7.13;;;5.07;;
75542;SDS011;64129;53.508;10.476;2023-05-07T03:38:19;8.82;;;6.22;;
75542;SDS011;64129;53.508;10.476;2023-05-07T03:40:46;8.23;;;6.18;;
75542;SDS011;64129;53.508;10.476;2023-05-07T03:43:12;10.63;;;5.90;;
75542;SDS011;64129;53.508;10.476;2023-05-07T03:45:44;9.65;;;7.22;;
75542;SDS011;64129;53.508;10.476;2023-05-07T03:48:17;10.60;;;6.78;;
75542;SDS011;64129;53.508;10.476;2023-05-07T03:50:45;9.32;;;6.60;;
75542;SDS011;64129;53.508;10.476;2023-05-07T03:53:12;8.95;;;6.50;;
75542;SDS011;64129;53.508;10.476;2023-05-07T03:55:39;6.78;;;5.93;;
75542;SDS011;64129;53.508;10.476;2023-05-07T03:58:06;9.02;;;6.05;;
75542;SDS011;64129;53.508;10.476;2023-05-07T04:00:32;9.48;;;6.63;;
75542;SDS011;64129;53.508;10.476;2023-05-07T04:03:09;10.43;;;6.93;;
75542;SDS011;64129;53.508;10.476;2023-05-07T04:05:35;10.45;;;7.40;;
75542;SDS011;64129;53.508;10.476;2023-05-07T04:08:02;9.73;;;7.40;;
75542;SDS011;64129;53.508;10.476;2023-05-07T04:10:38;8.40;;;6.05;;
75542;SDS011;64129;53.508;10.476;2023-05-07T04:13:09;8.85;;;6.90;;
75542;SDS011;64129;53.508;10.476;2023-05-07T04:15:36;9.15;;;7.10;;
75542;SDS011;64129;53.508;10.476;2023-05-07T04:18:06;9.52;;;6.35;;
75542;SDS011;64129;53.508;10.476;2023-05-07T04:20:34;9.18;;;6.70;;
75542;SDS011;64129;53.508;10.476;2023-05-07T04:23:04;9.43;;;6.82;;
75542;SDS011;64129;53.508;10.476;2023-05-07T04:25:31;9.10;;;5.75;;
75542;SDS011;64129;53.508;10.476;2023-05-07T04:28:06;8.48;;;6.32;;
75542;SDS011;64129;53.508;10.476;2023-05-07T04:30:33;9.30;;;6.38;;
75542;SDS011;64129;53.508;10.476;2023-05-07T04:33:01;8.63;;;6.55;;
75542;SDS011;64129;53.508;10.476;2023-05-07T04:35:29;7.25;;;5.68;;
75542;SDS011;64129;53.508;10.476;2023-05-07T04:37:57;7.07;;;5.85;;
75542;SDS011;64129;53.508;10.476;2023-05-07T04:40:23;8.23;;;5.63;;
75542;SDS011;64129;53.508;10.476;2023-05-07T04:42:50;7.07;;;5.35;;
75542;SDS011;64129;53.508;10.476;2023-05-07T04:45:17;7.13;;;5.82;;
75542;SDS011;64129;53.508;10.476;2023-05-07T04:52:40;6.60;;;5.43;;
75542;SDS011;64129;53.508;10.476;2023-05-07T04:55:07;8.15;;;5.85;;
75542;SDS011;64129;53.508;10.476;2023-05-07T04:57:37;9.70;;;5.93;;
75542;SDS011;64129;53.508;10.476;2023-05-07T05:00:06;9.20;;;6.65;;
75542;SDS011;64129;53.508;10.476;2023-05-07T05:02:36;8.40;;;6.25;;
75542;SDS011;64129;53.508;10.476;2023-05-07T05:05:03;7.47;;;5.32;;
75542;SDS011;64129;53.508;10.476;2023-05-07T05:07:30;7.88;;;6.07;;
75542;SDS011;64129;53.508;10.476;2023-05-07T05:09:58;6.93;;;6.20;;
75542;SDS011;64129;53.508;10.476;2023-05-07T05:12:24;8.13;;;5.45;;
75542;SDS011;64129;53.508;10.476;2023-05-07T05:14:52;7.05;;;5.30;;
75542;SDS011;64129;53.508;10.476;2023-05-07T05:17:18;7.60;;;5.53;;
75542;SDS011;64129;53.508;10.476;2023-05-07T05:19:45;7.93;;;5.80;;
75542;SDS011;64129;53.508;10.476;2023-05-07T05:22:12;8.88;;;5.35;;
75542;SDS011;64129;53.508;10.476;2023-05-07T05:24:38;8.43;;;6.03;;
75542;SDS011;64129;53.508;10.476;2023-05-07T05:27:05;7.55;;;5.50;;
75542;SDS011;64129;53.508;10.476;2023-05-07T05:29:31;8.43;;;5.63;;
75542;SDS011;64129;53.508;10.476;2023-05-07T05:31:58;8.85;;;6.00;;
75542;SDS011;64129;53.508;10.476;2023-05-07T05:34:26;5.85;;;4.80;;
75542;SDS011;64129;53.508;10.476;2023-05-07T05:36:54;8.30;;;5.40;;
75542;SDS011;64129;53.508;10.476;2023-05-07T05:39:21;5.97;;;4.55;;
75542;SDS011;64129;53.508;10.476;2023-05-07T05:41:49;5.60;;;4.90;;
75542;SDS011;64129;53.508;10.476;2023-05-07T05:44:16;5.25;;;4.00;;
75542;SDS011;64129;53.508;10.476;2023-05-07T05:46:43;6.35;;;5.38;;
75542;SDS011;64129;53.508;10.476;2023-05-07T05:49:09;6.00;;;4.85;;
75542;SDS011;64129;53.508;10.476;2023-05-07T05:51:37;6.78;;;5.18;;
75542;SDS011;64129;53.508;10.476;2023-05-07T05:54:04;8.02;;;5.55;;
75542;SDS011;64129;53.508;10.476;2023-05-07T05:56:31;6.70;;;5.15;;
75542;SDS011;64129;53.508;10.476;2023-05-07T05:58:58;7.78;;;5.57;;
75542;SDS011;64129;53.508;10.476;2023-05-07T06:01:25;8.65;;;5.63;;
75542;SDS011;64129;53.508;10.476;2023-05-07T06:03:53;8.10;;;5.47;;
75542;SDS011;64129;53.508;10.476;2023-05-07T06:06:20;6.85;;;5.63;;
75542;SDS011;64129;53.508;10.476;2023-05-07T06:08:46;6.72;;;5.38;;
75542;SDS011;64129;53.508;10.476;2023-05-07T06:11:18;6.15;;;5.55;;
75542;SDS011;64129;53.508;10.476;2023-05-07T06:13:45;6.60;;;5.35;;
75542;SDS011;64129;53.508;10.476;2023-05-07T06:16:12;6.43;;;5.10;;
75542;SDS011;64129;53.508;10.476;2023-05-07T06:18:39;6.05;;;4.88;;
75542;SDS011;64129;53.508;10.476;2023-05-07T06:21:05;5.95;;;4.70;;
75542;SDS011;64129;53.508;10.476;2023-05-07T06:23:33;5.35;;;4.50;;
75542;SDS011;64129;53.508;10.476;2023-05-07T06:26:01;5.25;;;4.15;;
75542;SDS011;64129;53.508;10.476;2023-05-07T06:28:33;5.35;;;4.25;;
75542;SDS011;64129;53.508;10.476;2023-05-07T06:31:13;4.90;;;4.40;;
75542;SDS011;64129;53.508;10.476;2023-05-07T06:33:50;4.95;;;3.83;;
75542;SDS011;64129;53.508;10.476;2023-05-07T06:36:17;5.65;;;4.32;;
75542;SDS011;64129;53.508;10.476;2023-05-07T06:38:44;5.60;;;4.28;;
75542;SDS011;64129;53.508;10.476;2023-05-07T06:41:10;6.15;;;4.82;;
75542;SDS011;64129;53.508;10.476;2023-05-07T06:43:38;6.82;;;4.70;;
75542;SDS011;64129;53.508;10.476;2023-05-07T06:46:23;4.85;;;4.07;;
75542;SDS011;64129;53.508;10.476;2023-05-07T06:48:50;5.80;;;4.45;;
75542;SDS011;64129;53.508;10.476;2023-05-07T06:51:16;6.07;;;5.32;;
75542;SDS011;64129;53.508;10.476;2023-05-07T06:53:43;5.93;;;4.63;;
75542;SDS011;64129;53.508;10.476;2023-05-07T06:56:10;8.45;;;4.90;;
75542;SDS011;64129;53.508;10.476;2023-05-07T06:58:38;5.93;;;4.95;;
75542;SDS011;64129;53.508;10.476;2023-05-07T07:01:05;6.05;;;5.03;;
75542;SDS011;64129;53.508;10.476;2023-05-07T07:03:33;6.85;;;5.07;;
75542;SDS011;64129;53.508;10.476;2023-05-07T07:05:59;5.78;;;4.22;;
75542;SDS011;64129;53.508;10.476;2023-05-07T07:08:28;6.65;;;4.80;;
75542;SDS011;64129;53.508;10.476;2023-05-07T07:10:55;5.95;;;4.88;;
75542;SDS011;64129;53.508;10.476;2023-05-07T07:13:22;4.57;;;4.18;;
75542;SDS011;64129;53.508;10.476;2023-05-07T07:15:48;7.35;;;5.03;;
75542;SDS011;64129;53.508;10.476;2023-05-07T07:18:16;4.40;;;3.97;;
75542;SDS011;64129;53.508;10.476;2023-05-07T07:20:44;6.30;;;4.57;;
75542;SDS011;64129;53.508;10.476;2023-05-07T07:23:12;6.07;;;4.10;;
75542;SDS011;64129;53.508;10.476;2023-05-07T07:25:39;6.53;;;4.93;;
75542;SDS011;64129;53.508;10.476;2023-05-07T07:28:06;5.20;;;3.95;;
75542;SDS011;64129;53.508;10.476;2023-05-07T07:30:33;5.15;;;4.03;;
75542;SDS011;64129;53.508;10.476;2023-05-07T07:32:59;5.78;;;5.00;;
75542;SDS011;64129;53.508;10.476;2023-05-07T07:35:32;5.20;;;4.68;;
75542;SDS011;64129;53.508;10.476;2023-05-07T07:37:59;7.35;;;5.20;;
75542;SDS011;64129;53.508;10.476;2023-05-07T07:40:26;5.80;;;4.70;;
75542;SDS011;64129;53.508;10.476;2023-05-07T07:42:53;4.60;;;3.53;;
75542;SDS011;64129;53.508;10.476;2023-05-07T07:45:21;6.80;;;4.57;;
75542;SDS011;64129;53.508;10.476;2023-05-07T07:47:49;6.38;;;4.55;;
75542;SDS011;64129;53.508;10.476;2023-05-07T07:50:16;7.72;;;5.38;;
75542;SDS011;64129;53.508;10.476;2023-05-07T07:52:48;5.55;;;4.72;;
75542;SDS011;64129;53.508;10.476;2023-05-07T07:55:19;5.75;;;5.07;;
75542;SDS011;64129;53.508;10.476;2023-05-07T07:57:51;3.97;;;3.58;;
75542;SDS011;64129;53.508;10.476;2023-05-07T08:00:17;6.15;;;4.20;;
75542;SDS011;64129;53.508;10.476;2023-05-07T08:02:49;4.43;;;4.00;;
75542;SDS011;64129;53.508;10.476;2023-05-07T08:05:22;6.55;;;4.43;;
75542;SDS011;64129;53.508;10.476;2023-05-07T08:07:50;5.15;;;4.00;;
75542;SDS011;64129;53.508;10.476;2023-05-07T08:12:56;3.92;;;3.50;;
75542;SDS011;64129;53.508;10.476;2023-05-07T08:15:23;5.55;;;3.95;;
75542;SDS011;64129;53.508;10.476;2023-05-07T08:17:49;6.60;;;4.32;;
75542;SDS011;64129;53.508;10.476;2023-05-07T08:20:16;5.25;;;4.45;;
75542;SDS011;64129;53.508;10.476;2023-05-07T08:22:43;4.80;;;4.35;;
75542;SDS011;64129;53.508;10.476;2023-05-07T08:25:09;5.30;;;4.32;;
75542;SDS011;64129;53.508;10.476;2023-05-07T08:27:36;5.63;;;4.53;;
75542;SDS011;64129;53.508;10.476;2023-05-07T08:30:03;5.13;;;4.63;;
75542;SDS011;64129;53.508;10.476;2023-05-07T08:32:30;5.05;;;3.92;;
75542;SDS011;64129;53.508;10.476;2023-05-07T08:34:57;6.22;;;4.25;;
75542;SDS011;64129;53.508;10.476;2023-05-07T08:37:23;5.90;;;4.43;;
75542;SDS011;64129;53.508;10.476;2023-05-07T08:39:50;6.05;;;3.83;;
75542;SDS011;64129;53.508;10.476;2023-05-07T08:42:20;4.70;;;3.60;;
75542;SDS011;64129;53.508;10.476;2023-05-07T08:44:50;5.32;;;4.60;;
75542;SDS011;64129;53.508;10.476;2023-05-07T08:47:21;5.65;;;4.60;;
75542;SDS011;64129;53.508;10.476;2023-05-07T08:49:51;4.68;;;4.10;;
75542;SDS011;64129;53.508;10.476;2023-05-07T08:52:20;4.35;;;3.95;;
75542;SDS011;64129;53.508;10.476;2023-05-07T08:54:47;5.35;;;4.18;;
75542;SDS011;64129;53.508;10.476;2023-05-07T08:57:14;6.13;;;3.80;;
75542;SDS011;64129;53.508;10.476;2023-05-07T08:59:42;6.03;;;4.20;;
75542;SDS011;64129;53.508;10.476;2023-05-07T09:02:09;4.95;;;4.22;;
75542;SDS011;64129;53.508;10.476;2023-05-07T09:04:38;5.90;;;4.28;;
75542;SDS011;64129;53.508;10.476;2023-05-07T09:07:05;4.25;;;3.65;;
75542;SDS011;64129;53.508;10.476;2023-05-07T09:09:35;5.88;;;4.05;;
75542;SDS011;64129;53.508;10.476;2023-05-07T09:12:03;5.85;;;4.55;;
75542;SDS011;64129;53.508;10.476;2023-05-07T09:14:32;5.18;;;4.07;;
75542;SDS011;64129;53.508;10.476;2023-05-07T09:16:59;5.57;;;4.40;;
75542;SDS011;64129;53.508;10.476;2023-05-07T09:19:26;5.13;;;4.22;;
75542;SDS011;64129;53.508;10.476;2023-05-07T09:22:00;4.63;;;3.92;;
75542;SDS011;64129;53.508;10.476;2023-05-07T09:24:35;5.50;;;4.78;;
75542;SDS011;64129;53.508;10.476;2023-05-07T09:27:06;5.15;;;4.25;;
75542;SDS011;64129;53.508;10.476;2023-05-07T09:29:35;5.15;;;4.18;;
75542;SDS011;64129;53.508;10.476;2023-05-07T09:32:06;5.13;;;4.53;;
75542;SDS011;64129;53.508;10.476;2023-05-07T09:34:34;5.45;;;4.32;;
75542;SDS011;64129;53.508;10.476;2023-05-07T09:39:42;5.28;;;4.43;;
75542;SDS011;64129;53.508;10.476;2023-05-07T09:42:12;8.43;;;4.20;;
75542;SDS011;64129;53.508;10.476;2023-05-07T09:44:39;3.78;;;2.85;;
75542;SDS011;64129;53.508;10.476;2023-05-07T09:47:10;4.53;;;3.78;;
75542;SDS011;64129;53.508;10.476;2023-05-07T09:49:44;5.35;;;3.38;;
75542;SDS011;64129;53.508;10.476;2023-05-07T09:52:17;4.28;;;3.60;;
75542;SDS011;64129;53.508;10.476;2023-05-07T09:54:48;5.25;;;3.25;;
75542;SDS011;64129;53.508;10.476;2023-05-07T09:57:18;4.82;;;3.55;;
75542;SDS011;64129;53.508;10.476;2023-05-07T09:59:50;4.85;;;3.20;;
75542;SDS011;64129;53.508;10.476;2023-05-07T10:02:19;5.18;;;3.40;;
75542;SDS011;64129;53.508;10.476;2023-05-07T10:04:50;3.92;;;2.88;;
75542;SDS011;64129;53.508;10.476;2023-05-07T10:07:22;5.80;;;3.45;;
75542;SDS011;64129;53.508;10.476;2023-05-07T10:09:53;3.63;;;3.33;;
75542;SDS011;64129;53.508;10.476;2023-05-07T10:12:28;4.25;;;3.80;;
75542;SDS011;64129;53.508;10.476;2023-05-07T10:14:56;3.85;;;3.45;;
75542;SDS011;64129;53.508;10.476;2023-05-07T10:17:23;3.58;;;3.22;;
75542;SDS011;64129;53.508;10.476;2023-05-07T10:22:20;4.55;;;3.60;;
75542;SDS011;64129;53.508;10.476;2023-05-07T10:24:48;3.60;;;3.30;;
75542;SDS011;64129;53.508;10.476;2023-05-07T10:27:18;4.35;;;2.85;;
75542;SDS011;64129;53.508;10.476;2023-05-07T10:32:39;3.35;;;3.05;;
75542;SDS011;64129;53.508;10.476;2023-05-07T10:35:15;3.22;;;2.95;;
75542;SDS011;64129;53.508;10.476;2023-05-07T10:37:48;3.92;;;2.97;;
75542;SDS011;64129;53.508;10.476;2023-05-07T10:40:16;3.38;;;3.08;;
75542;SDS011;64129;53.508;10.476;2023-05-07T10:42:53;4.68;;;2.65;;
75542;SDS011;64129;53.508;10.476;2023-05-07T10:45:22;3.60;;;3.20;;
75542;SDS011;64129;53.508;10.476;2023-05-07T10:53:50;3.38;;;2.58;;
75542;SDS011;64129;53.508;10.476;2023-05-07T10:56:45;3.05;;;2.85;;
75542;SDS011;64129;53.508;10.476;2023-05-07T11:01:57;2.53;;;2.25;;
75542;SDS011;64129;53.508;10.476;2023-05-07T11:04:32;3.47;;;2.60;;
75542;SDS011;64129;53.508;10.476;2023-05-07T11:15:10;3.30;;;2.40;;
75542;SDS011;64129;53.508;10.476;2023-05-07T11:17:55;2.97;;;2.25;;
75542;SDS011;64129;53.508;10.476;2023-05-07T11:26:23;2.35;;;2.15;;
75542;SDS011;64129;53.508;10.476;2023-05-07T11:28:52;2.42;;;2.15;;
75542;SDS011;64129;53.508;10.476;2023-05-07T11:31:24;2.33;;;2.00;;
75542;SDS011;64129;53.508;10.476;2023-05-07T11:33:54;2.17;;;2.03;;
75542;SDS011;64129;53.508;10.476;2023-05-07T11:36:22;2.38;;;2.17;;
75542;SDS011;64129;53.508;10.476;2023-05-07T11:38:52;2.05;;;1.83;;
75542;SDS011;64129;53.508;10.476;2023-05-07T11:41:18;3.00;;;2.10;;
75542;SDS011;64129;53.508;10.476;2023-05-07T11:43:53;2.40;;;2.20;;
75542;SDS011;64129;53.508;10.476;2023-05-07T11:46:23;4.22;;;1.75;;
75542;SDS011;64129;53.508;10.476;2023-05-07T11:48:50;2.58;;;2.25;;
75542;SDS011;64129;53.508;10.476;2023-05-07T11:51:24;1.98;;;1.77;;
75542;SDS011;64129;53.508;10.476;2023-05-07T11:53:52;2.88;;;2.05;;
75542;SDS011;64129;53.508;10.476;2023-05-07T11:56:19;3.22;;;1.92;;
75542;SDS011;64129;53.508;10.476;2023-05-07T11:58:46;1.75;;;1.65;;
75542;SDS011;64129;53.508;10.476;2023-05-07T12:01:13;2.08;;;1.60;;
75542;SDS011;64129;53.508;10.476;2023-05-07T12:03:42;2.50;;;1.55;;
75542;SDS011;64129;53.508;10.476;2023-05-07T12:06:12;1.92;;;1.83;;
75542;SDS011;64129;53.508;10.476;2023-05-07T12:08:40;2.28;;;1.77;;
75542;SDS011;64129;53.508;10.476;2023-05-07T12:11:09;2.03;;;1.42;;
75542;SDS011;64129;53.508;10.476;2023-05-07T12:13:42;1.85;;;1.65;;
75542;SDS011;64129;53.508;10.476;2023-05-07T12:16:09;3.92;;;2.00;;
75542;SDS011;64129;53.508;10.476;2023-05-07T12:18:36;1.70;;;1.60;;
75542;SDS011;64129;53.508;10.476;2023-05-07T12:21:04;2.05;;;1.42;;
75542;SDS011;64129;53.508;10.476;2023-05-07T12:23:33;2.22;;;2.05;;
75542;SDS011;64129;53.508;10.476;2023-05-07T12:26:01;2.38;;;1.60;;
75542;SDS011;64129;53.508;10.476;2023-05-07T12:28:29;2.20;;;2.00;;
75542;SDS011;64129;53.508;10.476;2023-05-07T12:30:56;1.60;;;1.50;;
75542;SDS011;64129;53.508;10.476;2023-05-07T12:33:24;2.22;;;2.03;;
75542;SDS011;64129;53.508;10.476;2023-05-07T12:35:53;2.88;;;1.85;;
75542;SDS011;64129;53.508;10.476;2023-05-07T12:38:21;2.03;;;1.45;;
75542;SDS011;64129;53.508;10.476;2023-05-07T12:40:49;2.97;;;1.50;;
75542;SDS011;64129;53.508;10.476;2023-05-07T12:43:18;1.65;;;1.50;;
75542;SDS011;64129;53.508;10.476;2023-05-07T12:48:13;1.50;;;1.40;;
75542;SDS011;64129;53.508;10.476;2023-05-07T12:50:39;1.92;;;1.50;;
75542;SDS011;64129;53.508;10.476;2023-05-07T12:53:06;2.20;;;1.60;;
75542;SDS011;64129;53.508;10.476;2023-05-07T12:55:50;1.92;;;1.75;;
75542;SDS011;64129;53.508;10.476;2023-05-07T12:58:33;1.73;;;1.63;;
75542;SDS011;64129;53.508;10.476;2023-05-07T13:01:04;2.20;;;1.55;;
75542;SDS011;64129;53.508;10.476;2023-05-07T13:03:36;2.20;;;1.60;;
75542;SDS011;64129;53.508;10.476;2023-05-07T13:06:04;1.55;;;1.45;;
75542;SDS011;64129;53.508;10.476;2023-05-07T13:08:34;1.80;;;1.70;;
75542;SDS011;64129;53.508;10.476;2023-05-07T13:11:03;2.05;;;1.48;;
75542;SDS011;64129;53.508;10.476;2023-05-07T13:13:31;2.45;;;1.80;;
75542;SDS011;64129;53.508;10.476;2023-05-07T13:15:59;2.40;;;1.52;;
75542;SDS011;64129;53.508;10.476;2023-05-07T13:18:26;1.42;;;1.33;;
75542;SDS011;64129;53.508;10.476;2023-05-07T13:20:53;1.70;;;1.60;;
75542;SDS011;64129;53.508;10.476;2023-05-07T13:23:20;1.83;;;1.73;;
75542;SDS011;64129;53.508;10.476;2023-05-07T13:25:47;1.90;;;1.58;;
75542;SDS011;64129;53.508;10.476;2023-05-07T13:28:16;2.75;;;1.85;;
75542;SDS011;64129;53.508;10.476;2023-05-07T13:30:43;2.08;;;1.77;;
75542;SDS011;64129;53.508;10.476;2023-05-07T13:33:09;3.20;;;1.90;;
75542;SDS011;64129;53.508;10.476;2023-05-07T13:35:36;1.88;;;1.58;;
75542;SDS011;64129;53.508;10.476;2023-05-07T13:38:02;3.55;;;1.83;;
75542;SDS011;64129;53.508;10.476;2023-05-07T13:40:29;2.58;;;1.63;;
75542;SDS011;64129;53.508;10.476;2023-05-07T13:42:56;1.63;;;1.52;;
75542;SDS011;64129;53.508;10.476;2023-05-07T13:45:24;1.70;;;1.60;;
75542;SDS011;64129;53.508;10.476;2023-05-07T13:47:52;3.03;;;2.00;;
75542;SDS011;64129;53.508;10.476;2023-05-07T13:50:18;2.00;;;1.50;;
75542;SDS011;64129;53.508;10.476;2023-05-07T13:52:45;2.40;;;2.00;;
75542;SDS011;64129;53.508;10.476;2023-05-07T13:55:17;1.83;;;1.48;;
75542;SDS011;64129;53.508;10.476;2023-05-07T13:57:44;2.45;;;1.70;;
75542;SDS011;64129;53.508;10.476;2023-05-07T14:00:12;2.20;;;2.00;;
75542;SDS011;64129;53.508;10.476;2023-05-07T14:02:42;2.83;;;1.90;;
75542;SDS011;64129;53.508;10.476;2023-05-07T14:05:09;1.80;;;1.70;;
75542;SDS011;64129;53.508;10.476;2023-05-07T14:07:36;1.90;;;1.65;;
75542;SDS011;64129;53.508;10.476;2023-05-07T14:10:03;2.63;;;2.08;;
75542;SDS011;64129;53.508;10.476;2023-05-07T14:12:29;3.97;;;1.90;;
75542;SDS011;64129;53.508;10.476;2023-05-07T14:14:56;1.80;;;1.70;;
75542;SDS011;64129;53.508;10.476;2023-05-07T14:17:22;1.80;;;1.70;;
75542;SDS011;64129;53.508;10.476;2023-05-07T14:19:51;1.95;;;1.73;;
75542;SDS011;64129;53.508;10.476;2023-05-07T14:22:20;2.45;;;1.65;;
75542;SDS011;64129;53.508;10.476;2023-05-07T14:24:48;2.17;;;1.63;;
75542;SDS011;64129;53.508;10.476;2023-05-07T14:27:21;4.13;;;1.60;;
75542;SDS011;64129;53.508;10.476;2023-05-07T14:29:47;1.55;;;1.35;;
75542;SDS011;64129;53.508;10.476;2023-05-07T14:32:17;1.58;;;1.48;;
75542;SDS011;64129;53.508;10.476;2023-05-07T14:34:44;2.40;;;1.70;;
75542;SDS011;64129;53.508;10.476;2023-05-07T14:37:11;1.55;;;1.45;;
75542;SDS011;64129;53.508;10.476;2023-05-07T14:39:38;1.70;;;1.60;;
75542;SDS011;64129;53.508;10.476;2023-05-07T14:42:04;2.35;;;1.60;;
75542;SDS011;64129;53.508;10.476;2023-05-07T14:44:31;1.92;;;1.65;;
75542;SDS011;64129;53.508;10.476;2023-05-07T14:46:58;2.42;;;1.40;;
75542;SDS011;64129;53.508;10.476;2023-05-07T14:49:27;1.80;;;1.70;;
75542;SDS011;64129;53.508;10.476;2023-05-07T14:51:53;12.82;;;11.45;;
75542;SDS011;64129;53.508;10.476;2023-05-07T14:54:20;11.57;;;8.93;;
75542;SDS011;64129;53.508;10.476;2023-05-07T14:56:46;16.33;;;14.25;;
75542;SDS011;64129;53.508;10.476;2023-05-07T14:59:13;5.70;;;4.88;;
75542;SDS011;64129;53.508;10.476;2023-05-07T15:01:39;12.77;;;11.50;;
75542;SDS011;64129;53.508;10.476;2023-05-07T15:04:08;3.20;;;2.90;;
75542;SDS011;64129;53.508;10.476;2023-05-07T15:06:35;1.98;;;1.77;;
75542;SDS011;64129;53.508;10.476;2023-05-07T15:09:01;1.50;;;1.40;;
75542;SDS011;64129;53.508;10.476;2023-05-07T15:11:29;2.88;;;1.63;;
75542;SDS011;64129;53.508;10.476;2023-05-07T15:13:56;3.50;;;3.03;;
75542;SDS011;64129;53.508;10.476;2023-05-07T15:16:22;5.70;;;3.75;;
75542;SDS011;64129;53.508;10.476;2023-05-07T15:18:49;4.90;;;4.00;;
75542;SDS011;64129;53.508;10.476;2023-05-07T15:21:15;3.67;;;1.88;;
75542;SDS011;64129;53.508;10.476;2023-05-07T15:23:42;2.25;;;1.90;;